Pacific Solarelle — V7UB8 — position and weather

sailwx.info

Track history (hours):
 
Tides and Currents Weather Stations Pressure Air Temp Water Temp Dewpoint Dewpoint Depression Visibility Wind Speed Wind Dir Waves Ship Positions

Pacific Solarelle

Last reported at 2014-Oct-26 06:11 UTC. Time now 2014-Oct-31 21:31 UTC.
Position N 28°55' W 094°25'.

Length 180 m; draft 11.2 m.

Type: Tanker. MMSI: 538003925.

Date/timePositionNaut miles runAvg speedWind from/ knotsBaromVisibWave heightAir tempDewpointWater temp
2014-Oct-26 06:11N 28°55' W 094°25'812.5
2014-Oct-26 05:33N 29°03' W 094°24'16 7.7
2014-Oct-26 03:30N 29°14' W 094°37'11 5.7
2014-Oct-26 01:31N 29°21' W 094°47'9 9.8
2014-Oct-26 00:33N 29°29' W 094°52'1010.1
2014-Oct-25 23:34N 29°38' W 094°58'7 7.5
2014-Oct-25 22:33N 29°44' W 095°03'5 5.0
2014-Oct-25 21:33N 29°44' W 095°09'4 0.5
2014-Oct-25 13:33N 29°44' W 095°14'0 0.0
2014-Oct-25 11:18N 29°44' W 095°14'0 0.0
2014-Oct-25 07:30N 29°44' W 095°14'0 0.0
2014-Oct-25 06:12N 29°44' W 095°14'0 0.0
2014-Oct-23 03:33N 29°44' W 095°14'0 0.0
2014-Oct-23 02:33N 29°44' W 095°14'2 1.7
2014-Oct-23 01:33N 29°44' W 095°12'7 6.6
2014-Oct-23 00:33N 29°46' W 095°04'9 9.4
2014-Oct-22 23:34N 29°38' W 094°58'1110.5
2014-Oct-22 22:33N 29°29' W 094°52'  
2014-Oct-18 13:11N 29°13' W 094°37'  
Track history (hours):
 
Tides and Currents Weather Stations Pressure Air Temp Water Temp Dewpoint Dewpoint Depression Visibility Wind Speed Wind Dir Waves Ship Positions

Pacific Solarelle

Last reported at 2014-Oct-26 06:11 UTC. Time now 2014-Oct-31 21:31 UTC.
Position N 28°55' W 094°25'.

Length 180 m; draft 11.2 m.

Type: Tanker. MMSI: 538003925.

Date/timePositionNaut miles runAvg speedWind from/ knotsBaromVisibWave heightAir tempDewpointWater temp
2014-Oct-26 06:11N 28°55' W 094°25'812.5
2014-Oct-26 05:33N 29°03' W 094°24'16 7.7
2014-Oct-26 03:30N 29°14' W 094°37'11 5.7
2014-Oct-26 01:31N 29°21' W 094°47'9 9.8
2014-Oct-26 00:33N 29°29' W 094°52'1010.1
2014-Oct-25 23:34N 29°38' W 094°58'7 7.5
2014-Oct-25 22:33N 29°44' W 095°03'5 5.0
2014-Oct-25 21:33N 29°44' W 095°09'4 0.5
2014-Oct-25 13:33N 29°44' W 095°14'0 0.0
2014-Oct-25 11:18N 29°44' W 095°14'0 0.0
2014-Oct-25 07:30N 29°44' W 095°14'0 0.0
2014-Oct-25 06:12N 29°44' W 095°14'0 0.0
2014-Oct-23 03:33N 29°44' W 095°14'0 0.0
2014-Oct-23 02:33N 29°44' W 095°14'2 1.7
2014-Oct-23 01:33N 29°44' W 095°12'7 6.6
2014-Oct-23 00:33N 29°46' W 095°04'9 9.4
2014-Oct-22 23:34N 29°38' W 094°58'1110.5
2014-Oct-22 22:33N 29°29' W 094°52'  
2014-Oct-18 13:11N 29°13' W 094°37'  

Dump ship's entire track history